Terminal Aerodrome Forecast
Issued by NWS Wichita, KS

Home | Current Version | Previous Version | Text Only | Print | Product List | Glossary Off
Versions: 1 2 3 4 5 6 7 8 9 10 11 12 13 14 15 16 17 18

431
FTUS43 KICT 062333
TAFICT
TAF
KICT 062333Z 0700/0724 35007KT P6SM BKN150
     FM070400 VRB03KT P6SM OVC100
     FM070800 08004KT P6SM OVC080
     FM071700 07009KT 5SM -SN BR SCT040 OVC060
     FM072100 02012KT P6SM OVC040=

USA.gov is the U.S. government's official web portal to all federal, state and local government web resources and services.